createdAt,value
2022-09-23T00:03:01.324Z,3.40
2022-09-23T00:13:05.682Z,2.42
2022-09-23T00:18:08.118Z,2.92
2022-09-23T00:23:09.488Z,3.20
2022-09-23T00:28:10.788Z,2.40
2022-09-23T00:33:12.091Z,2.67
2022-09-23T00:38:14.263Z,2.80
2022-09-23T00:43:15.817Z,2.17
2022-09-23T00:53:26.531Z,1.98
2022-09-23T00:58:31.815Z,2.35
2022-09-23T01:03:33.153Z,2.40
2022-09-23T01:08:34.774Z,2.00
2022-09-23T01:18:56.915Z,2.00
2022-09-23T01:24:08.119Z,2.22
2022-09-23T01:29:27.457Z,2.10
2022-09-23T01:34:58.139Z,2.50
2022-09-23T01:40:20.821Z,2.25
2022-09-23T01:45:38.676Z,2.40
2022-09-23T01:50:56.866Z,2.40
2022-09-23T01:56:03.383Z,2.35
2022-09-23T02:01:07.404Z,2.42
2022-09-23T02:06:15.771Z,2.17
2022-09-23T02:11:18.059Z,2.53
2022-09-23T02:16:26.486Z,2.60
2022-09-23T02:21:34.112Z,2.90
2022-09-23T02:26:41.552Z,2.83
2022-09-23T02:32:00.212Z,2.45
2022-09-23T02:38:00.437Z,2.88
2022-09-23T02:43:10.942Z,2.42
2022-09-23T02:48:33.151Z,2.67
2022-09-23T02:53:34.740Z,2.30
2022-09-23T03:04:05.028Z,2.70
2022-09-23T03:09:15.468Z,2.47
2022-09-23T03:14:50.648Z,2.78
2022-09-23T03:20:12.513Z,2.88
2022-09-23T03:25:17.741Z,2.47
2022-09-23T03:30:21.597Z,2.90
2022-09-23T03:35:27.280Z,2.97
2022-09-23T03:40:32.857Z,3.00
2022-09-23T03:45:34.819Z,3.20
2022-09-23T03:50:36.420Z,2.47
2022-09-23T04:00:40.730Z,2.58
2022-09-23T04:10:44.245Z,3.22
2022-09-23T04:15:45.560Z,3.17
2022-09-23T04:20:47.315Z,2.70
2022-09-23T04:25:48.933Z,2.45
2022-09-23T04:30:50.337Z,2.65
2022-09-23T04:35:52.309Z,3.00
2022-09-23T04:40:53.806Z,2.67
2022-09-23T04:51:05.532Z,2.67
2022-09-23T04:56:10.004Z,2.67
2022-09-23T05:01:26.607Z,2.80
2022-09-23T05:06:34.382Z,2.80
2022-09-23T05:11:36.051Z,2.83
2022-09-23T05:16:37.584Z,2.67
2022-09-23T05:26:40.509Z,2.70
2022-09-23T05:31:41.824Z,3.28
2022-09-23T05:36:43.548Z,5.00
2022-09-23T05:41:45.697Z,3.95
2022-09-23T05:46:47.071Z,3.30
2022-09-23T05:51:48.423Z,2.75
2022-09-23T05:56:49.769Z,3.25
2022-09-23T06:01:54.435Z,3.65
2022-09-23T06:07:00.342Z,3.53
2022-09-23T06:12:06.244Z,3.28
2022-09-23T06:17:07.656Z,3.03
2022-09-23T06:22:09.061Z,3.42
2022-09-23T06:27:10.360Z,3.25
2022-09-23T06:32:11.670Z,3.05
2022-09-23T06:37:19.612Z,3.58
2022-09-23T06:42:21.912Z,3.15
2022-09-23T06:47:23.263Z,3.40
2022-09-23T06:52:25.057Z,3.10
2022-09-23T06:57:29.883Z,4.30
2022-09-23T07:02:31.338Z,2.85
2022-09-23T07:12:34.333Z,2.73
2022-09-23T07:17:36.794Z,2.40
2022-09-23T07:27:39.907Z,2.50
2022-09-23T07:32:48.238Z,2.15
2022-09-23T07:37:50.601Z,2.75
2022-09-23T07:42:52.150Z,2.63
2022-09-23T07:47:55.177Z,2.50
2022-09-23T07:52:56.487Z,2.55
2022-09-23T07:57:57.784Z,2.35
2022-09-23T08:02:59.242Z,2.60
2022-09-23T08:08:00.719Z,2.30
2022-09-23T08:18:04.806Z,2.40
2022-09-23T08:23:06.281Z,2.25
2022-09-23T08:28:08.493Z,2.40
2022-09-23T08:33:14.944Z,2.35
2022-09-23T08:38:17.403Z,2.35
2022-09-23T08:48:36.019Z,2.53
2022-09-23T08:53:37.932Z,2.50
2022-09-23T08:59:01.194Z,2.38
2022-09-23T09:04:17.089Z,2.50
2022-09-23T09:09:25.292Z,2.38
2022-09-23T09:14:47.659Z,2.40
2022-09-23T09:19:55.293Z,2.30
2022-09-23T09:25:05.456Z,2.60
2022-09-23T09:30:14.373Z,3.03
2022-09-23T09:35:26.751Z,2.92
2022-09-23T09:40:28.101Z,2.80
2022-09-23T09:45:57.770Z,3.08
2022-09-23T09:51:24.983Z,2.80
2022-09-23T09:56:34.852Z,2.97
2022-09-23T10:01:36.771Z,3.03
2022-09-23T10:06:38.227Z,5.20
2022-09-23T10:11:40.976Z,3.75
2022-09-23T10:16:42.512Z,4.30
2022-09-23T10:21:50.078Z,4.68
2022-09-23T10:26:57.542Z,4.07
2022-09-23T10:32:27.305Z,3.63
2022-09-23T10:37:38.296Z,3.80
2022-09-23T10:43:07.404Z,3.70
2022-09-23T10:48:15.394Z,3.65
2022-09-23T10:53:33.701Z,3.72
2022-09-23T10:59:20.896Z,3.75
2022-09-23T11:04:40.618Z,3.97
2022-09-23T11:09:48.026Z,4.40
2022-09-23T11:15:26.728Z,3.75
2022-09-23T11:20:40.537Z,3.58
2022-09-23T11:25:56.865Z,4.10
2022-09-23T11:31:24.733Z,4.13
2022-09-23T11:36:33.618Z,3.97
2022-09-23T11:41:38.811Z,3.63
2022-09-23T11:46:57.614Z,3.58
2022-09-23T11:52:37.885Z,3.22
2022-09-23T11:57:50.337Z,3.10
2022-09-23T12:03:23.558Z,4.50
2022-09-23T12:08:33.099Z,4.05
2022-09-23T12:14:12.417Z,4.18
2022-09-23T12:19:42.613Z,3.65
2022-09-23T12:24:54.654Z,3.08
2022-09-23T12:30:02.674Z,2.92
2022-09-23T12:35:04.427Z,3.40
2022-09-23T12:40:44.540Z,3.10
2022-09-23T12:45:47.853Z,2.72
2022-09-23T12:50:50.705Z,2.63
2022-09-23T12:55:54.161Z,2.33
2022-09-23T13:01:28.507Z,2.40
2022-09-23T13:06:39.934Z,2.03
2022-09-23T13:11:45.222Z,2.00
2022-09-23T13:16:47.568Z,1.92
2022-09-23T13:21:50.536Z,1.70
2022-09-23T13:27:30.901Z,1.90
2022-09-23T13:32:42.079Z,2.83
2022-09-23T13:42:52.869Z,2.08
2022-09-23T13:48:00.020Z,2.10
2022-09-23T13:53:05.855Z,2.10
2022-09-23T13:58:20.902Z,2.67
2022-09-23T14:03:36.471Z,2.10
2022-09-23T14:08:41.273Z,2.60
2022-09-23T14:13:44.578Z,2.72
2022-09-23T14:18:49.328Z,2.92
2022-09-23T14:23:50.625Z,2.75
2022-09-23T14:28:52.722Z,2.95
2022-09-23T14:33:54.983Z,2.92
2022-09-23T14:39:07.454Z,2.85
2022-09-23T14:44:21.623Z,2.88
2022-09-23T14:49:24.319Z,2.97
2022-09-23T14:54:45.648Z,3.00
2022-09-23T14:59:52.920Z,3.05
2022-09-23T15:05:15.700Z,2.90
2022-09-23T15:10:23.503Z,2.70
2022-09-23T15:15:28.214Z,2.83
2022-09-23T15:20:29.644Z,2.88
2022-09-23T15:25:39.997Z,2.70
2022-09-23T15:30:41.402Z,2.47
2022-09-23T15:35:48.187Z,2.13
2022-09-23T15:40:50.263Z,2.20
2022-09-23T15:45:56.229Z,2.10
2022-09-23T15:51:04.455Z,2.10
2022-09-23T15:56:06.198Z,2.28
2022-09-23T16:01:17.579Z,2.47
2022-09-23T16:06:20.245Z,1.80
2022-09-23T16:11:24.784Z,2.08
2022-09-23T16:16:27.785Z,1.60
2022-09-23T16:21:29.322Z,1.88
2022-09-23T16:26:34.594Z,1.67
2022-09-23T16:31:36.110Z,1.98
2022-09-23T16:36:43.237Z,2.35
2022-09-23T16:41:44.601Z,2.25
2022-09-23T16:46:45.934Z,2.85
2022-09-23T16:51:47.387Z,2.72
2022-09-23T16:56:48.763Z,4.35
2022-09-23T17:02:08.797Z,2.97
2022-09-23T17:07:10.764Z,3.10
2022-09-23T17:12:42.648Z,2.80
2022-09-23T17:17:44.002Z,2.88
2022-09-23T17:22:45.360Z,3.00
2022-09-23T17:27:48.480Z,3.47
2022-09-23T17:32:49.792Z,3.47
2022-09-23T17:37:51.172Z,3.50
2022-09-23T17:42:55.124Z,3.25
2022-09-23T17:47:56.454Z,2.75
2022-09-23T17:53:01.030Z,3.30
2022-09-23T17:58:02.344Z,3.22
2022-09-23T18:03:03.788Z,3.58
2022-09-23T18:08:06.132Z,3.33
2022-09-23T18:13:07.565Z,3.70
2022-09-23T18:18:08.918Z,3.50
2022-09-23T18:23:10.547Z,3.40
2022-09-23T18:28:11.876Z,4.03
2022-09-23T18:33:15.130Z,4.00
2022-09-23T18:38:16.477Z,4.05
2022-09-23T18:43:19.837Z,3.80
2022-09-23T18:48:40.100Z,3.33
2022-09-23T18:53:41.869Z,3.88
2022-09-23T18:58:47.627Z,4.80
2022-09-23T19:03:54.181Z,4.60
2022-09-23T19:08:55.846Z,5.70
2022-09-23T19:14:00.404Z,6.40
2022-09-23T19:19:04.107Z,5.05
2022-09-23T19:24:08.095Z,5.00
2022-09-23T19:29:14.873Z,4.65
2022-09-23T19:34:23.608Z,4.50
2022-09-23T19:39:28.121Z,4.40
2022-09-23T19:44:29.569Z,5.00
2022-09-23T19:49:30.986Z,4.13
2022-09-23T19:54:32.336Z,4.47
2022-09-23T19:59:33.721Z,4.70
2022-09-23T20:04:35.389Z,4.55
2022-09-23T20:09:36.715Z,4.47
2022-09-23T20:24:41.462Z,5.75
2022-09-23T20:29:43.221Z,5.10
2022-09-23T20:34:48.442Z,5.18
2022-09-23T20:39:51.654Z,6.20
2022-09-23T20:44:52.976Z,7.38
2022-09-23T20:54:56.667Z,8.60
2022-09-23T20:59:58.294Z,8.50
2022-09-23T21:05:00.224Z,5.82
2022-09-23T21:10:04.618Z,5.88
2022-09-23T21:15:06.443Z,9.60
2022-09-23T21:20:08.575Z,7.32
2022-09-23T21:25:27.500Z,7.57
2022-09-23T21:30:29.645Z,6.43
2022-09-23T21:35:31.115Z,5.95
2022-09-23T21:40:51.048Z,5.70
2022-09-23T21:45:59.460Z,5.70
2022-09-23T21:51:06.394Z,6.18
2022-09-23T21:56:10.866Z,5.65
2022-09-23T22:01:20.644Z,5.22
2022-09-23T22:06:27.021Z,6.28
2022-09-23T22:11:50.412Z,5.00
2022-09-23T22:16:55.838Z,5.55
2022-09-23T22:21:57.135Z,6.13
2022-09-23T22:32:24.356Z,5.72
2022-09-23T22:37:28.399Z,6.45
2022-09-23T22:42:30.838Z,8.40
2022-09-23T22:47:37.550Z,10.38
2022-09-23T22:52:39.359Z,11.65
2022-09-23T22:57:40.960Z,10.70
2022-09-23T23:02:42.396Z,10.95
2022-09-23T23:07:43.916Z,10.73
2022-09-23T23:17:48.105Z,11.32
2022-09-23T23:27:50.705Z,11.05
2022-09-23T23:32:52.074Z,12.68
2022-09-23T23:37:53.521Z,13.90
2022-09-23T23:42:54.880Z,14.40
2022-09-23T23:52:57.968Z,15.90
2022-09-23T23:58:02.148Z,17.13
